sensor_id;sensor_type;location;lat;lon;timestamp;temperature;humidity
5554;DHT22;2800;49.528;8.666;2023-02-12T00:01:19;5.60;99.90
5554;DHT22;2800;49.528;8.666;2023-02-12T00:03:45;5.50;99.90
5554;DHT22;2800;49.528;8.666;2023-02-12T00:06:11;5.60;99.90
5554;DHT22;2800;49.528;8.666;2023-02-12T00:08:37;5.50;99.90
5554;DHT22;2800;49.528;8.666;2023-02-12T00:11:13;5.60;99.90
5554;DHT22;2800;49.528;8.666;2023-02-12T00:13:40;5.60;99.90
5554;DHT22;2800;49.528;8.666;2023-02-12T00:16:11;5.70;99.90
5554;DHT22;2800;49.528;8.666;2023-02-12T00:18:37;5.70;99.90
5554;DHT22;2800;49.528;8.666;2023-02-12T00:21:03;5.60;99.90
5554;DHT22;2800;49.528;8.666;2023-02-12T00:23:29;5.70;99.90
5554;DHT22;2800;49.528;8.666;2023-02-12T00:25:55;5.70;99.90
5554;DHT22;2800;49.528;8.666;2023-02-12T00:28:21;5.70;99.90
5554;DHT22;2800;49.528;8.666;2023-02-12T00:30:46;5.70;99.90
5554;DHT22;2800;49.528;8.666;2023-02-12T00:33:12;5.70;99.90
5554;DHT22;2800;49.528;8.666;2023-02-12T00:35:37;5.70;99.90
5554;DHT22;2800;49.528;8.666;2023-02-12T00:38:03;5.70;99.90
5554;DHT22;2800;49.528;8.666;2023-02-12T00:40:28;5.70;99.90
5554;DHT22;2800;49.528;8.666;2023-02-12T00:42:54;5.70;99.90
5554;DHT22;2800;49.528;8.666;2023-02-12T00:45:19;5.70;99.90
5554;DHT22;2800;49.528;8.666;2023-02-12T00:47:45;5.70;99.90
5554;DHT22;2800;49.528;8.666;2023-02-12T00:50:10;5.70;99.90
5554;DHT22;2800;49.528;8.666;2023-02-12T00:52:36;5.70;99.90
5554;DHT22;2800;49.528;8.666;2023-02-12T00:55:02;5.70;99.90
5554;DHT22;2800;49.528;8.666;2023-02-12T00:57:27;5.60;99.90
5554;DHT22;2800;49.528;8.666;2023-02-12T00:59:53;5.70;99.90
5554;DHT22;2800;49.528;8.666;2023-02-12T01:02:18;5.70;99.90
5554;DHT22;2800;49.528;8.666;2023-02-12T01:04:44;5.70;99.90
5554;DHT22;2800;49.528;8.666;2023-02-12T01:07:09;5.70;99.90
5554;DHT22;2800;49.528;8.666;2023-02-12T01:09:35;5.70;99.90
5554;DHT22;2800;49.528;8.666;2023-02-12T01:12:01;5.70;99.90
5554;DHT22;2800;49.528;8.666;2023-02-12T01:14:26;5.60;99.90
5554;DHT22;2800;49.528;8.666;2023-02-12T01:16:52;5.60;99.90
5554;DHT22;2800;49.528;8.666;2023-02-12T01:19:17;5.70;99.90
5554;DHT22;2800;49.528;8.666;2023-02-12T01:21:43;5.70;99.90
5554;DHT22;2800;49.528;8.666;2023-02-12T01:24:09;5.70;99.90
5554;DHT22;2800;49.528;8.666;2023-02-12T01:26:34;5.60;99.90
5554;DHT22;2800;49.528;8.666;2023-02-12T01:29:03;5.60;99.90
5554;DHT22;2800;49.528;8.666;2023-02-12T01:31:31;5.60;99.90
5554;DHT22;2800;49.528;8.666;2023-02-12T01:33:58;5.60;99.90
5554;DHT22;2800;49.528;8.666;2023-02-12T01:36:25;5.70;99.90
5554;DHT22;2800;49.528;8.666;2023-02-12T01:38:51;5.70;99.90
5554;DHT22;2800;49.528;8.666;2023-02-12T01:41:25;5.70;99.90
5554;DHT22;2800;49.528;8.666;2023-02-12T01:44:18;5.70;99.90
5554;DHT22;2800;49.528;8.666;2023-02-12T01:46:47;5.80;99.90
5554;DHT22;2800;49.528;8.666;2023-02-12T01:49:25;5.80;99.90
5554;DHT22;2800;49.528;8.666;2023-02-12T01:54:33;5.70;99.90
5554;DHT22;2800;49.528;8.666;2023-02-12T01:57:01;5.70;99.90
5554;DHT22;2800;49.528;8.666;2023-02-12T01:59:27;5.70;99.90
5554;DHT22;2800;49.528;8.666;2023-02-12T02:01:53;5.70;99.90
5554;DHT22;2800;49.528;8.666;2023-02-12T02:04:23;5.70;99.90
5554;DHT22;2800;49.528;8.666;2023-02-12T02:07:00;5.70;99.90
5554;DHT22;2800;49.528;8.666;2023-02-12T02:09:26;5.70;99.90
5554;DHT22;2800;49.528;8.666;2023-02-12T02:11:52;5.70;99.90
5554;DHT22;2800;49.528;8.666;2023-02-12T02:14:37;5.70;99.90
5554;DHT22;2800;49.528;8.666;2023-02-12T02:23:29;5.70;99.90
5554;DHT22;2800;49.528;8.666;2023-02-12T02:31:46;5.60;99.90
5554;DHT22;2800;49.528;8.666;2023-02-12T02:34:26;5.50;99.90
5554;DHT22;2800;49.528;8.666;2023-02-12T02:39:42;5.60;99.90
5554;DHT22;2800;49.528;8.666;2023-02-12T02:42:22;5.60;99.90
5554;DHT22;2800;49.528;8.666;2023-02-12T02:45:07;5.60;99.90
5554;DHT22;2800;49.528;8.666;2023-02-12T02:47:40;5.60;99.90
5554;DHT22;2800;49.528;8.666;2023-02-12T02:50:13;5.60;99.90
5554;DHT22;2800;49.528;8.666;2023-02-12T02:53:00;5.60;99.90
5554;DHT22;2800;49.528;8.666;2023-02-12T02:55:30;5.60;99.90
5554;DHT22;2800;49.528;8.666;2023-02-12T02:58:01;5.60;99.90
5554;DHT22;2800;49.528;8.666;2023-02-12T03:00:38;5.60;99.90
5554;DHT22;2800;49.528;8.666;2023-02-12T03:03:13;5.60;99.90
5554;DHT22;2800;49.528;8.666;2023-02-12T03:05:44;5.60;99.90
5554;DHT22;2800;49.528;8.666;2023-02-12T03:08:18;5.60;99.90
5554;DHT22;2800;49.528;8.666;2023-02-12T03:10:52;5.60;99.90
5554;DHT22;2800;49.528;8.666;2023-02-12T03:14:18;5.60;99.90
5554;DHT22;2800;49.528;8.666;2023-02-12T03:16:22;5.60;99.90
5554;DHT22;2800;49.528;8.666;2023-02-12T03:18:55;5.60;99.90
5554;DHT22;2800;49.528;8.666;2023-02-12T03:21:30;5.60;99.90
5554;DHT22;2800;49.528;8.666;2023-02-12T03:24:23;5.70;99.90
5554;DHT22;2800;49.528;8.666;2023-02-12T03:26:55;5.70;99.90
5554;DHT22;2800;49.528;8.666;2023-02-12T03:29:22;5.60;99.90
5554;DHT22;2800;49.528;8.666;2023-02-12T03:35:01;5.60;99.90
5554;DHT22;2800;49.528;8.666;2023-02-12T03:37:34;5.70;99.90
5554;DHT22;2800;49.528;8.666;2023-02-12T03:40:18;5.60;99.90
5554;DHT22;2800;49.528;8.666;2023-02-12T03:43:02;5.60;99.90
5554;DHT22;2800;49.528;8.666;2023-02-12T03:48:36;5.70;99.90
5554;DHT22;2800;49.528;8.666;2023-02-12T03:51:21;5.70;99.90
5554;DHT22;2800;49.528;8.666;2023-02-12T03:53:49;5.70;99.90
5554;DHT22;2800;49.528;8.666;2023-02-12T03:56:48;5.70;99.90
5554;DHT22;2800;49.528;8.666;2023-02-12T03:59:18;5.60;99.90
5554;DHT22;2800;49.528;8.666;2023-02-12T04:01:44;5.60;99.90
5554;DHT22;2800;49.528;8.666;2023-02-12T04:04:10;5.60;99.90
5554;DHT22;2800;49.528;8.666;2023-02-12T04:06:35;5.50;99.90
5554;DHT22;2800;49.528;8.666;2023-02-12T04:09:04;5.60;99.90
5554;DHT22;2800;49.528;8.666;2023-02-12T04:17:39;5.60;99.90
5554;DHT22;2800;49.528;8.666;2023-02-12T04:23:21;5.50;99.90
5554;DHT22;2800;49.528;8.666;2023-02-12T04:29:18;5.40;99.90
5554;DHT22;2800;49.528;8.666;2023-02-12T04:31:55;5.40;99.90
5554;DHT22;2800;49.528;8.666;2023-02-12T04:37:04;5.50;99.90
5554;DHT22;2800;49.528;8.666;2023-02-12T04:39:34;5.60;99.90
5554;DHT22;2800;49.528;8.666;2023-02-12T04:42:01;5.60;99.90
5554;DHT22;2800;49.528;8.666;2023-02-12T04:44:30;5.50;99.90
5554;DHT22;2800;49.528;8.666;2023-02-12T04:46:56;5.50;99.90
5554;DHT22;2800;49.528;8.666;2023-02-12T04:49:22;5.50;99.90
5554;DHT22;2800;49.528;8.666;2023-02-12T04:51:49;5.40;99.90
5554;DHT22;2800;49.528;8.666;2023-02-12T04:54:15;5.40;99.90
5554;DHT22;2800;49.528;8.666;2023-02-12T04:56:41;5.40;99.90
5554;DHT22;2800;49.528;8.666;2023-02-12T04:59:07;5.40;99.90
5554;DHT22;2800;49.528;8.666;2023-02-12T05:01:34;5.40;99.90
5554;DHT22;2800;49.528;8.666;2023-02-12T05:04:00;5.50;99.90
5554;DHT22;2800;49.528;8.666;2023-02-12T05:06:25;5.50;99.90
5554;DHT22;2800;49.528;8.666;2023-02-12T05:08:52;5.50;99.90
5554;DHT22;2800;49.528;8.666;2023-02-12T05:11:18;5.50;99.90
5554;DHT22;2800;49.528;8.666;2023-02-12T05:13:47;5.50;99.90
5554;DHT22;2800;49.528;8.666;2023-02-12T05:16:13;5.50;99.90
5554;DHT22;2800;49.528;8.666;2023-02-12T05:18:39;5.10;99.90
5554;DHT22;2800;49.528;8.666;2023-02-12T05:21:04;5.50;99.90
5554;DHT22;2800;49.528;8.666;2023-02-12T05:23:32;5.50;99.90
5554;DHT22;2800;49.528;8.666;2023-02-12T05:26:00;5.40;99.90
5554;DHT22;2800;49.528;8.666;2023-02-12T05:28:26;5.40;99.90
5554;DHT22;2800;49.528;8.666;2023-02-12T05:30:52;5.30;99.90
5554;DHT22;2800;49.528;8.666;2023-02-12T05:33:18;5.30;99.90
5554;DHT22;2800;49.528;8.666;2023-02-12T05:35:43;5.20;99.90
5554;DHT22;2800;49.528;8.666;2023-02-12T05:38:09;5.20;99.90
5554;DHT22;2800;49.528;8.666;2023-02-12T05:40:34;5.20;99.90
5554;DHT22;2800;49.528;8.666;2023-02-12T05:43:01;5.10;99.90
5554;DHT22;2800;49.528;8.666;2023-02-12T05:45:27;5.10;99.90
5554;DHT22;2800;49.528;8.666;2023-02-12T05:47:54;5.10;99.90
5554;DHT22;2800;49.528;8.666;2023-02-12T05:50:19;5.20;99.90
5554;DHT22;2800;49.528;8.666;2023-02-12T05:52:45;5.20;99.90
5554;DHT22;2800;49.528;8.666;2023-02-12T05:55:10;5.20;99.90
5554;DHT22;2800;49.528;8.666;2023-02-12T05:57:36;5.20;99.90
5554;DHT22;2800;49.528;8.666;2023-02-12T06:00:03;5.20;99.90
5554;DHT22;2800;49.528;8.666;2023-02-12T06:02:29;5.30;99.90
5554;DHT22;2800;49.528;8.666;2023-02-12T06:04:54;5.20;99.90
5554;DHT22;2800;49.528;8.666;2023-02-12T06:07:20;5.20;99.90
5554;DHT22;2800;49.528;8.666;2023-02-12T06:09:45;5.20;99.90
5554;DHT22;2800;49.528;8.666;2023-02-12T06:12:11;5.20;99.90
5554;DHT22;2800;49.528;8.666;2023-02-12T06:14:39;5.10;99.90
5554;DHT22;2800;49.528;8.666;2023-02-12T06:17:05;5.10;99.90
5554;DHT22;2800;49.528;8.666;2023-02-12T06:19:30;5.10;99.90
5554;DHT22;2800;49.528;8.666;2023-02-12T06:21:55;5.10;99.90
5554;DHT22;2800;49.528;8.666;2023-02-12T06:24:21;5.00;99.90
5554;DHT22;2800;49.528;8.666;2023-02-12T06:26:49;5.00;99.90
5554;DHT22;2800;49.528;8.666;2023-02-12T06:29:15;4.90;99.90
5554;DHT22;2800;49.528;8.666;2023-02-12T06:31:41;4.80;99.90
5554;DHT22;2800;49.528;8.666;2023-02-12T06:34:08;4.80;99.90
5554;DHT22;2800;49.528;8.666;2023-02-12T06:36:39;4.80;99.90
5554;DHT22;2800;49.528;8.666;2023-02-12T06:39:05;4.70;99.90
5554;DHT22;2800;49.528;8.666;2023-02-12T06:41:31;4.60;99.90
5554;DHT22;2800;49.528;8.666;2023-02-12T06:43:57;4.50;99.90
5554;DHT22;2800;49.528;8.666;2023-02-12T06:46:23;4.50;99.90
5554;DHT22;2800;49.528;8.666;2023-02-12T06:48:52;4.50;99.90
5554;DHT22;2800;49.528;8.666;2023-02-12T06:51:18;4.50;99.90
5554;DHT22;2800;49.528;8.666;2023-02-12T06:53:46;4.50;99.90
5554;DHT22;2800;49.528;8.666;2023-02-12T06:56:12;4.40;99.90
5554;DHT22;2800;49.528;8.666;2023-02-12T06:58:44;4.40;99.90
5554;DHT22;2800;49.528;8.666;2023-02-12T07:01:14;4.40;99.90
5554;DHT22;2800;49.528;8.666;2023-02-12T07:03:43;4.40;99.90
5554;DHT22;2800;49.528;8.666;2023-02-12T07:06:09;4.40;99.90
5554;DHT22;2800;49.528;8.666;2023-02-12T07:08:35;4.40;99.90
5554;DHT22;2800;49.528;8.666;2023-02-12T07:11:00;4.50;99.90
5554;DHT22;2800;49.528;8.666;2023-02-12T07:13:26;4.60;99.90
5554;DHT22;2800;49.528;8.666;2023-02-12T07:15:51;4.60;99.90
5554;DHT22;2800;49.528;8.666;2023-02-12T07:18:17;4.70;99.90
5554;DHT22;2800;49.528;8.666;2023-02-12T07:20:43;4.70;99.90
5554;DHT22;2800;49.528;8.666;2023-02-12T07:23:11;4.70;99.90
5554;DHT22;2800;49.528;8.666;2023-02-12T07:25:37;4.80;99.90
5554;DHT22;2800;49.528;8.666;2023-02-12T07:28:03;4.80;99.90
5554;DHT22;2800;49.528;8.666;2023-02-12T07:30:28;4.90;99.90
5554;DHT22;2800;49.528;8.666;2023-02-12T07:32:54;4.90;99.90
5554;DHT22;2800;49.528;8.666;2023-02-12T07:35:19;5.00;99.90
5554;DHT22;2800;49.528;8.666;2023-02-12T07:37:45;5.10;99.90
5554;DHT22;2800;49.528;8.666;2023-02-12T07:40:11;5.20;99.90
5554;DHT22;2800;49.528;8.666;2023-02-12T07:42:36;5.20;99.90
5554;DHT22;2800;49.528;8.666;2023-02-12T07:45:02;5.30;99.90
5554;DHT22;2800;49.528;8.666;2023-02-12T07:47:28;5.40;99.90
5554;DHT22;2800;49.528;8.666;2023-02-12T07:49:53;5.50;99.90
5554;DHT22;2800;49.528;8.666;2023-02-12T07:52:19;5.50;99.90
5554;DHT22;2800;49.528;8.666;2023-02-12T07:54:46;5.60;99.90
5554;DHT22;2800;49.528;8.666;2023-02-12T07:57:11;5.60;99.90
5554;DHT22;2800;49.528;8.666;2023-02-12T07:59:37;5.60;99.90
5554;DHT22;2800;49.528;8.666;2023-02-12T08:02:03;5.70;99.90
5554;DHT22;2800;49.528;8.666;2023-02-12T08:04:28;5.70;99.90
5554;DHT22;2800;49.528;8.666;2023-02-12T08:06:55;5.80;99.90
5554;DHT22;2800;49.528;8.666;2023-02-12T08:09:23;5.80;99.90
5554;DHT22;2800;49.528;8.666;2023-02-12T08:11:49;5.90;99.90
5554;DHT22;2800;49.528;8.666;2023-02-12T08:14:18;6.10;99.90
5554;DHT22;2800;49.528;8.666;2023-02-12T08:16:46;6.10;99.90
5554;DHT22;2800;49.528;8.666;2023-02-12T08:19:12;6.10;99.90
5554;DHT22;2800;49.528;8.666;2023-02-12T08:21:37;6.10;99.90
5554;DHT22;2800;49.528;8.666;2023-02-12T08:24:03;6.10;99.90
5554;DHT22;2800;49.528;8.666;2023-02-12T08:26:31;6.20;99.90
5554;DHT22;2800;49.528;8.666;2023-02-12T08:31:32;6.20;99.90
5554;DHT22;2800;49.528;8.666;2023-02-12T08:33:59;6.30;99.90
5554;DHT22;2800;49.528;8.666;2023-02-12T08:36:27;6.30;99.90
5554;DHT22;2800;49.528;8.666;2023-02-12T08:38:56;6.40;99.90
5554;DHT22;2800;49.528;8.666;2023-02-12T08:41:24;6.40;99.90
5554;DHT22;2800;49.528;8.666;2023-02-12T08:43:52;6.50;99.90
5554;DHT22;2800;49.528;8.666;2023-02-12T08:46:21;6.60;99.90
5554;DHT22;2800;49.528;8.666;2023-02-12T08:48:47;6.60;99.90
5554;DHT22;2800;49.528;8.666;2023-02-12T08:51:16;6.70;99.90
5554;DHT22;2800;49.528;8.666;2023-02-12T08:53:44;6.80;99.90
5554;DHT22;2800;49.528;8.666;2023-02-12T08:56:11;6.80;99.90
5554;DHT22;2800;49.528;8.666;2023-02-12T08:58:37;6.90;99.90
5554;DHT22;2800;49.528;8.666;2023-02-12T09:01:03;6.90;99.90
5554;DHT22;2800;49.528;8.666;2023-02-12T09:03:30;7.00;99.90
5554;DHT22;2800;49.528;8.666;2023-02-12T09:05:55;7.00;99.90
5554;DHT22;2800;49.528;8.666;2023-02-12T09:08:21;7.10;99.90
5554;DHT22;2800;49.528;8.666;2023-02-12T09:10:46;7.10;99.90
5554;DHT22;2800;49.528;8.666;2023-02-12T09:13:13;7.10;99.90
5554;DHT22;2800;49.528;8.666;2023-02-12T09:15:41;7.20;99.90
5554;DHT22;2800;49.528;8.666;2023-02-12T09:18:09;7.20;99.90
5554;DHT22;2800;49.528;8.666;2023-02-12T09:20:38;7.20;99.90
5554;DHT22;2800;49.528;8.666;2023-02-12T09:23:07;7.30;99.90
5554;DHT22;2800;49.528;8.666;2023-02-12T09:25:34;7.40;99.90
5554;DHT22;2800;49.528;8.666;2023-02-12T09:28:02;7.40;99.90
5554;DHT22;2800;49.528;8.666;2023-02-12T09:30:28;7.50;99.90
5554;DHT22;2800;49.528;8.666;2023-02-12T09:32:54;7.60;99.90
5554;DHT22;2800;49.528;8.666;2023-02-12T09:35:20;7.70;99.90
5554;DHT22;2800;49.528;8.666;2023-02-12T09:37:46;7.70;99.90
5554;DHT22;2800;49.528;8.666;2023-02-12T09:40:43;7.80;99.90
5554;DHT22;2800;49.528;8.666;2023-02-12T09:47:12;7.80;99.90
5554;DHT22;2800;49.528;8.666;2023-02-12T09:51:47;7.90;99.90
5554;DHT22;2800;49.528;8.666;2023-02-12T09:54:17;7.90;99.90
5554;DHT22;2800;49.528;8.666;2023-02-12T09:56:47;7.90;99.90
5554;DHT22;2800;49.528;8.666;2023-02-12T09:59:42;8.30;99.90
5554;DHT22;2800;49.528;8.666;2023-02-12T10:02:18;7.90;99.90
5554;DHT22;2800;49.528;8.666;2023-02-12T10:04:47;8.00;99.90
5554;DHT22;2800;49.528;8.666;2023-02-12T10:10:39;8.10;99.90
5554;DHT22;2800;49.528;8.666;2023-02-12T10:16:08;8.20;99.90
5554;DHT22;2800;49.528;8.666;2023-02-12T10:19:02;8.30;99.90
5554;DHT22;2800;49.528;8.666;2023-02-12T10:22:09;8.30;99.90
5554;DHT22;2800;49.528;8.666;2023-02-12T10:27:32;8.40;99.90
5554;DHT22;2800;49.528;8.666;2023-02-12T10:29:59;8.50;99.90
5554;DHT22;2800;49.528;8.666;2023-02-12T10:32:29;8.60;99.90
5554;DHT22;2800;49.528;8.666;2023-02-12T10:34:57;8.60;99.90
5554;DHT22;2800;49.528;8.666;2023-02-12T10:37:32;8.70;99.90
5554;DHT22;2800;49.528;8.666;2023-02-12T10:40:18;8.80;99.90
5554;DHT22;2800;49.528;8.666;2023-02-12T10:42:48;8.80;99.90
5554;DHT22;2800;49.528;8.666;2023-02-12T10:45:21;8.90;99.90
5554;DHT22;2800;49.528;8.666;2023-02-12T10:47:51;8.90;99.90
5554;DHT22;2800;49.528;8.666;2023-02-12T10:53:24;9.00;99.90
5554;DHT22;2800;49.528;8.666;2023-02-12T10:58:50;9.00;99.90
5554;DHT22;2800;49.528;8.666;2023-02-12T11:01:20;9.00;99.90
5554;DHT22;2800;49.528;8.666;2023-02-12T11:03:47;9.10;99.90
5554;DHT22;2800;49.528;8.666;2023-02-12T11:06:25;9.20;99.90
5554;DHT22;2800;49.528;8.666;2023-02-12T11:08:52;9.20;99.90
5554;DHT22;2800;49.528;8.666;2023-02-12T11:11:28;9.20;99.90
5554;DHT22;2800;49.528;8.666;2023-02-12T11:14:15;9.20;99.90
5554;DHT22;2800;49.528;8.666;2023-02-12T11:16:56;9.20;99.90
5554;DHT22;2800;49.528;8.666;2023-02-12T11:19:24;9.20;99.90
5554;DHT22;2800;49.528;8.666;2023-02-12T11:21:51;8.60;99.90
5554;DHT22;2800;49.528;8.666;2023-02-12T11:24:33;9.20;99.90
5554;DHT22;2800;49.528;8.666;2023-02-12T11:29:41;9.10;99.90
5554;DHT22;2800;49.528;8.666;2023-02-12T11:32:08;9.00;99.90
5554;DHT22;2800;49.528;8.666;2023-02-12T11:34:36;8.90;99.90
5554;DHT22;2800;49.528;8.666;2023-02-12T11:37:03;9.20;99.90
5554;DHT22;2800;49.528;8.666;2023-02-12T11:39:32;9.20;99.90
5554;DHT22;2800;49.528;8.666;2023-02-12T11:42:05;9.20;99.90
5554;DHT22;2800;49.528;8.666;2023-02-12T11:44:40;9.20;99.90
5554;DHT22;2800;49.528;8.666;2023-02-12T11:47:09;9.20;99.90
5554;DHT22;2800;49.528;8.666;2023-02-12T11:49:55;9.30;99.90
5554;DHT22;2800;49.528;8.666;2023-02-12T11:52:25;9.40;99.90
5554;DHT22;2800;49.528;8.666;2023-02-12T11:54:55;9.40;99.90
5554;DHT22;2800;49.528;8.666;2023-02-12T11:57:44;9.40;99.90
5554;DHT22;2800;49.528;8.666;2023-02-12T12:02:41;9.60;99.90
5554;DHT22;2800;49.528;8.666;2023-02-12T12:05:12;9.70;99.90
5554;DHT22;2800;49.528;8.666;2023-02-12T12:07:44;9.60;99.90
5554;DHT22;2800;49.528;8.666;2023-02-12T12:10:19;9.60;99.90
5554;DHT22;2800;49.528;8.666;2023-02-12T12:12:50;9.60;99.90
5554;DHT22;2800;49.528;8.666;2023-02-12T12:15:30;9.70;99.90
5554;DHT22;2800;49.528;8.666;2023-02-12T12:26:59;9.70;99.90
5554;DHT22;2800;49.528;8.666;2023-02-12T12:29:50;9.90;99.90
5554;DHT22;2800;49.528;8.666;2023-02-12T12:32:18;10.00;99.90
5554;DHT22;2800;49.528;8.666;2023-02-12T12:34:46;10.40;99.90
5554;DHT22;2800;49.528;8.666;2023-02-12T12:37:49;10.60;99.90
5554;DHT22;2800;49.528;8.666;2023-02-12T12:40:39;10.90;99.90
5554;DHT22;2800;49.528;8.666;2023-02-12T12:46:17;11.30;99.90
5554;DHT22;2800;49.528;8.666;2023-02-12T12:49:06;11.50;99.90
5554;DHT22;2800;49.528;8.666;2023-02-12T12:52:29;12.80;99.90
5554;DHT22;2800;49.528;8.666;2023-02-12T12:54:48;14.60;99.90
5554;DHT22;2800;49.528;8.666;2023-02-12T13:00:26;16.30;97.40
5554;DHT22;2800;49.528;8.666;2023-02-12T13:08:36;18.00;81.70
5554;DHT22;2800;49.528;8.666;2023-02-12T13:19:54;17.30;69.00
5554;DHT22;2800;49.528;8.666;2023-02-12T13:22:41;16.90;68.40
5554;DHT22;2800;49.528;8.666;2023-02-12T13:25:31;17.30;64.80
5554;DHT22;2800;49.528;8.666;2023-02-12T13:27:59;17.80;64.10
5554;DHT22;2800;49.528;8.666;2023-02-12T13:30:48;18.20;64.50
5554;DHT22;2800;49.528;8.666;2023-02-12T13:33:41;19.30;62.50
5554;DHT22;2800;49.528;8.666;2023-02-12T13:36:09;19.50;59.50
5554;DHT22;2800;49.528;8.666;2023-02-12T13:38:47;19.30;57.80
5554;DHT22;2800;49.528;8.666;2023-02-12T13:41:16;19.20;58.20
5554;DHT22;2800;49.528;8.666;2023-02-12T13:52:00;19.30;55.60
5554;DHT22;2800;49.528;8.666;2023-02-12T13:54:47;19.60;54.90
5554;DHT22;2800;49.528;8.666;2023-02-12T13:57:16;19.40;55.10
5554;DHT22;2800;49.528;8.666;2023-02-12T13:59:50;19.10;55.40
5554;DHT22;2800;49.528;8.666;2023-02-12T14:07:19;18.80;55.10
5554;DHT22;2800;49.528;8.666;2023-02-12T14:10:00;18.90;55.70
5554;DHT22;2800;49.528;8.666;2023-02-12T14:12:27;18.20;54.10
5554;DHT22;2800;49.528;8.666;2023-02-12T14:18:37;17.90;56.10
5554;DHT22;2800;49.528;8.666;2023-02-12T14:20:39;17.80;56.20
5554;DHT22;2800;49.528;8.666;2023-02-12T14:23:23;17.80;57.10
5554;DHT22;2800;49.528;8.666;2023-02-12T14:36:41;17.70;57.90
5554;DHT22;2800;49.528;8.666;2023-02-12T14:47:11;17.40;59.50
5554;DHT22;2800;49.528;8.666;2023-02-12T14:52:15;16.80;60.30
5554;DHT22;2800;49.528;8.666;2023-02-12T14:54:54;16.90;61.70
5554;DHT22;2800;49.528;8.666;2023-02-12T14:57:40;16.70;62.30
5554;DHT22;2800;49.528;8.666;2023-02-12T15:00:24;16.50;63.50
5554;DHT22;2800;49.528;8.666;2023-02-12T15:03:16;15.80;67.10
5554;DHT22;2800;49.528;8.666;2023-02-12T15:08:43;15.70;71.70
5554;DHT22;2800;49.528;8.666;2023-02-12T15:11:23;15.80;74.50
5554;DHT22;2800;49.528;8.666;2023-02-12T15:14:03;15.90;73.30
5554;DHT22;2800;49.528;8.666;2023-02-12T15:16:51;16.00;76.00
5554;DHT22;2800;49.528;8.666;2023-02-12T15:19:53;16.10;75.20
5554;DHT22;2800;49.528;8.666;2023-02-12T15:22:32;16.10;74.90
5554;DHT22;2800;49.528;8.666;2023-02-12T15:27:47;16.10;75.50
5554;DHT22;2800;49.528;8.666;2023-02-12T15:30:19;15.90;76.30
5554;DHT22;2800;49.528;8.666;2023-02-12T15:32:46;15.70;77.60
5554;DHT22;2800;49.528;8.666;2023-02-12T15:35:38;15.80;78.00
5554;DHT22;2800;49.528;8.666;2023-02-12T15:38:19;15.70;78.80
5554;DHT22;2800;49.528;8.666;2023-02-12T15:40:56;15.50;81.30
5554;DHT22;2800;49.528;8.666;2023-02-12T15:43:26;15.00;82.70
5554;DHT22;2800;49.528;8.666;2023-02-12T15:45:53;14.90;86.10
5554;DHT22;2800;49.528;8.666;2023-02-12T15:48:21;14.90;91.10
5554;DHT22;2800;49.528;8.666;2023-02-12T15:50:54;14.80;89.60
5554;DHT22;2800;49.528;8.666;2023-02-12T15:53:23;14.60;90.70
5554;DHT22;2800;49.528;8.666;2023-02-12T15:55:50;14.50;92.80
5554;DHT22;2800;49.528;8.666;2023-02-12T16:00:51;14.10;94.80
5554;DHT22;2800;49.528;8.666;2023-02-12T16:03:26;14.00;96.90
5554;DHT22;2800;49.528;8.666;2023-02-12T16:06:02;13.80;99.50
5554;DHT22;2800;49.528;8.666;2023-02-12T16:08:28;13.50;99.90
5554;DHT22;2800;49.528;8.666;2023-02-12T16:10:56;13.30;99.90
5554;DHT22;2800;49.528;8.666;2023-02-12T16:13:30;13.10;99.90
5554;DHT22;2800;49.528;8.666;2023-02-12T16:18:29;12.40;99.90
5554;DHT22;2800;49.528;8.666;2023-02-12T16:21:23;12.10;99.90
5554;DHT22;2800;49.528;8.666;2023-02-12T16:23:49;11.80;99.90
5554;DHT22;2800;49.528;8.666;2023-02-12T16:26:25;11.50;99.90
5554;DHT22;2800;49.528;8.666;2023-02-12T16:28:53;11.30;99.90
5554;DHT22;2800;49.528;8.666;2023-02-12T16:31:21;11.00;99.90
5554;DHT22;2800;49.528;8.666;2023-02-12T16:33:52;10.80;99.90
5554;DHT22;2800;49.528;8.666;2023-02-12T16:38:47;10.40;99.90
5554;DHT22;2800;49.528;8.666;2023-02-12T16:41:20;10.30;99.90
5554;DHT22;2800;49.528;8.666;2023-02-12T16:46:50;10.10;99.90
5554;DHT22;2800;49.528;8.666;2023-02-12T16:49:18;9.80;99.90
5554;DHT22;2800;49.528;8.666;2023-02-12T16:51:46;9.60;99.90
5554;DHT22;2800;49.528;8.666;2023-02-12T16:56:56;9.30;99.90
5554;DHT22;2800;49.528;8.666;2023-02-12T16:59:22;9.20;99.90
5554;DHT22;2800;49.528;8.666;2023-02-12T17:02:02;9.00;99.90
5554;DHT22;2800;49.528;8.666;2023-02-12T17:04:29;8.90;99.90
5554;DHT22;2800;49.528;8.666;2023-02-12T17:06:55;8.80;99.90
5554;DHT22;2800;49.528;8.666;2023-02-12T17:09:20;8.60;99.90
5554;DHT22;2800;49.528;8.666;2023-02-12T17:11:46;8.50;99.90
5554;DHT22;2800;49.528;8.666;2023-02-12T17:14:17;8.40;99.90
5554;DHT22;2800;49.528;8.666;2023-02-12T17:16:43;8.20;99.90
5554;DHT22;2800;49.528;8.666;2023-02-12T17:19:09;8.00;99.90
5554;DHT22;2800;49.528;8.666;2023-02-12T17:21:42;7.90;99.90
5554;DHT22;2800;49.528;8.666;2023-02-12T17:24:21;7.70;99.90
5554;DHT22;2800;49.528;8.666;2023-02-12T17:26:47;7.60;99.90
5554;DHT22;2800;49.528;8.666;2023-02-12T17:29:18;7.40;99.90
5554;DHT22;2800;49.528;8.666;2023-02-12T17:31:44;7.30;99.90
5554;DHT22;2800;49.528;8.666;2023-02-12T17:34:10;7.20;99.90
5554;DHT22;2800;49.528;8.666;2023-02-12T17:36:35;7.10;99.90
5554;DHT22;2800;49.528;8.666;2023-02-12T17:39:04;7.00;99.90
5554;DHT22;2800;49.528;8.666;2023-02-12T17:41:30;7.00;99.90
5554;DHT22;2800;49.528;8.666;2023-02-12T17:43:55;6.90;99.90
5554;DHT22;2800;49.528;8.666;2023-02-12T17:46:24;6.80;99.90
5554;DHT22;2800;49.528;8.666;2023-02-12T17:48:49;6.80;99.90
5554;DHT22;2800;49.528;8.666;2023-02-12T17:51:16;6.70;99.90
5554;DHT22;2800;49.528;8.666;2023-02-12T17:53:41;6.60;99.90
5554;DHT22;2800;49.528;8.666;2023-02-12T17:56:16;6.60;99.90
5554;DHT22;2800;49.528;8.666;2023-02-12T17:58:42;6.50;99.90
5554;DHT22;2800;49.528;8.666;2023-02-12T18:01:10;6.40;99.90
5554;DHT22;2800;49.528;8.666;2023-02-12T18:03:36;6.50;99.90
5554;DHT22;2800;49.528;8.666;2023-02-12T18:06:02;6.40;99.90
5554;DHT22;2800;49.528;8.666;2023-02-12T18:08:28;6.40;99.90
5554;DHT22;2800;49.528;8.666;2023-02-12T18:10:53;6.30;99.90
5554;DHT22;2800;49.528;8.666;2023-02-12T18:13:19;6.30;99.90
5554;DHT22;2800;49.528;8.666;2023-02-12T18:15:45;6.20;99.90
5554;DHT22;2800;49.528;8.666;2023-02-12T18:18:10;6.10;99.90
5554;DHT22;2800;49.528;8.666;2023-02-12T18:20:38;6.10;99.90
5554;DHT22;2800;49.528;8.666;2023-02-12T18:23:04;6.00;99.90
5554;DHT22;2800;49.528;8.666;2023-02-12T18:25:30;6.00;99.90
5554;DHT22;2800;49.528;8.666;2023-02-12T18:27:56;5.90;99.90
5554;DHT22;2800;49.528;8.666;2023-02-12T18:30:22;6.00;99.90
5554;DHT22;2800;49.528;8.666;2023-02-12T18:32:47;6.00;99.90
5554;DHT22;2800;49.528;8.666;2023-02-12T18:35:13;5.90;99.90
5554;DHT22;2800;49.528;8.666;2023-02-12T18:37:39;5.90;99.90
5554;DHT22;2800;49.528;8.666;2023-02-12T18:40:06;5.90;99.90
5554;DHT22;2800;49.528;8.666;2023-02-12T18:42:32;5.80;99.90
5554;DHT22;2800;49.528;8.666;2023-02-12T18:44:57;5.80;99.90
5554;DHT22;2800;49.528;8.666;2023-02-12T18:47:23;5.80;99.90
5554;DHT22;2800;49.528;8.666;2023-02-12T18:49:48;5.80;99.90
5554;DHT22;2800;49.528;8.666;2023-02-12T18:52:14;5.80;99.90
5554;DHT22;2800;49.528;8.666;2023-02-12T18:54:40;5.80;99.90
5554;DHT22;2800;49.528;8.666;2023-02-12T18:57:05;5.80;99.90
5554;DHT22;2800;49.528;8.666;2023-02-12T18:59:31;5.80;99.90
5554;DHT22;2800;49.528;8.666;2023-02-12T19:01:56;5.70;99.90
5554;DHT22;2800;49.528;8.666;2023-02-12T19:04:22;5.70;99.90
5554;DHT22;2800;49.528;8.666;2023-02-12T19:06:52;5.70;99.90
5554;DHT22;2800;49.528;8.666;2023-02-12T19:09:21;5.70;99.90